sensor_id;sensor_type;location;lat;lon;timestamp;P1;durP1;ratioP1;P2;durP2;ratioP2
20065;SDS011;10193;48.884;9.182;2023-01-24T00:02:07;9.47;;;8.47;;
20065;SDS011;10193;48.884;9.182;2023-01-24T00:04:34;8.80;;;7.93;;
20065;SDS011;10193;48.884;9.182;2023-01-24T00:07:01;8.77;;;7.93;;
20065;SDS011;10193;48.884;9.182;2023-01-24T00:09:27;9.43;;;8.43;;
20065;SDS011;10193;48.884;9.182;2023-01-24T00:11:55;9.67;;;8.67;;
20065;SDS011;10193;48.884;9.182;2023-01-24T00:14:22;9.40;;;8.43;;
20065;SDS011;10193;48.884;9.182;2023-01-24T00:16:48;9.53;;;8.53;;
20065;SDS011;10193;48.884;9.182;2023-01-24T00:19:15;9.83;;;8.70;;
20065;SDS011;10193;48.884;9.182;2023-01-24T00:21:42;9.87;;;8.87;;
20065;SDS011;10193;48.884;9.182;2023-01-24T00:24:08;10.03;;;9.03;;
20065;SDS011;10193;48.884;9.182;2023-01-24T00:26:35;10.23;;;9.00;;
20065;SDS011;10193;48.884;9.182;2023-01-24T00:29:03;10.27;;;9.20;;
20065;SDS011;10193;48.884;9.182;2023-01-24T00:31:30;10.47;;;9.33;;
20065;SDS011;10193;48.884;9.182;2023-01-24T00:33:56;10.80;;;9.70;;
20065;SDS011;10193;48.884;9.182;2023-01-24T00:36:23;11.37;;;10.03;;
20065;SDS011;10193;48.884;9.182;2023-01-24T00:38:49;10.83;;;9.63;;
20065;SDS011;10193;48.884;9.182;2023-01-24T00:41:16;12.07;;;10.77;;
20065;SDS011;10193;48.884;9.182;2023-01-24T00:43:43;12.30;;;11.00;;
20065;SDS011;10193;48.884;9.182;2023-01-24T00:46:11;11.30;;;10.10;;
20065;SDS011;10193;48.884;9.182;2023-01-24T00:48:38;12.07;;;10.30;;
20065;SDS011;10193;48.884;9.182;2023-01-24T00:51:04;11.80;;;10.60;;
20065;SDS011;10193;48.884;9.182;2023-01-24T00:53:31;12.03;;;10.73;;
20065;SDS011;10193;48.884;9.182;2023-01-24T00:55:58;11.23;;;10.03;;
20065;SDS011;10193;48.884;9.182;2023-01-24T00:58:24;11.47;;;10.17;;
20065;SDS011;10193;48.884;9.182;2023-01-24T01:00:54;11.63;;;10.43;;
20065;SDS011;10193;48.884;9.182;2023-01-24T01:03:22;13.13;;;10.40;;
20065;SDS011;10193;48.884;9.182;2023-01-24T01:05:49;11.60;;;10.20;;
20065;SDS011;10193;48.884;9.182;2023-01-24T01:08:15;11.20;;;10.03;;
20065;SDS011;10193;48.884;9.182;2023-01-24T01:10:43;11.80;;;10.50;;
20065;SDS011;10193;48.884;9.182;2023-01-24T01:13:11;11.77;;;9.90;;
20065;SDS011;10193;48.884;9.182;2023-01-24T01:15:38;11.60;;;10.40;;
20065;SDS011;10193;48.884;9.182;2023-01-24T01:18:06;11.53;;;10.10;;
20065;SDS011;10193;48.884;9.182;2023-01-24T01:20:35;11.37;;;10.17;;
20065;SDS011;10193;48.884;9.182;2023-01-24T01:23:02;11.27;;;10.03;;
20065;SDS011;10193;48.884;9.182;2023-01-24T01:25:29;11.17;;;9.97;;
20065;SDS011;10193;48.884;9.182;2023-01-24T01:27:56;11.97;;;10.70;;
20065;SDS011;10193;48.884;9.182;2023-01-24T01:30:23;11.33;;;10.13;;
20065;SDS011;10193;48.884;9.182;2023-01-24T01:32:50;10.30;;;9.17;;
20065;SDS011;10193;48.884;9.182;2023-01-24T01:35:16;11.47;;;10.23;;
20065;SDS011;10193;48.884;9.182;2023-01-24T01:37:44;10.67;;;9.57;;
20065;SDS011;10193;48.884;9.182;2023-01-24T01:40:11;11.10;;;9.90;;
20065;SDS011;10193;48.884;9.182;2023-01-24T01:42:44;11.63;;;10.40;;
20065;SDS011;10193;48.884;9.182;2023-01-24T01:45:34;11.27;;;9.50;;
20065;SDS011;10193;48.884;9.182;2023-01-24T01:48:04;10.90;;;9.80;;
20065;SDS011;10193;48.884;9.182;2023-01-24T01:50:45;11.37;;;10.03;;
20065;SDS011;10193;48.884;9.182;2023-01-24T01:53:17;11.23;;;9.83;;
20065;SDS011;10193;48.884;9.182;2023-01-24T01:55:48;11.53;;;10.33;;
20065;SDS011;10193;48.884;9.182;2023-01-24T01:58:20;11.13;;;9.70;;
20065;SDS011;10193;48.884;9.182;2023-01-24T02:00:47;10.43;;;9.33;;
20065;SDS011;10193;48.884;9.182;2023-01-24T02:03:16;10.73;;;9.63;;
20065;SDS011;10193;48.884;9.182;2023-01-24T02:06:15;10.77;;;9.67;;
20065;SDS011;10193;48.884;9.182;2023-01-24T02:08:54;11.13;;;9.47;;
20065;SDS011;10193;48.884;9.182;2023-01-24T02:11:22;10.37;;;9.27;;
20065;SDS011;10193;48.884;9.182;2023-01-24T02:14:06;10.97;;;9.40;;
20065;SDS011;10193;48.884;9.182;2023-01-24T02:16:53;10.20;;;9.20;;
20065;SDS011;10193;48.884;9.182;2023-01-24T02:19:23;11.27;;;9.97;;
20065;SDS011;10193;48.884;9.182;2023-01-24T02:22:07;11.43;;;9.27;;
20065;SDS011;10193;48.884;9.182;2023-01-24T02:24:44;10.60;;;8.97;;
20065;SDS011;10193;48.884;9.182;2023-01-24T02:27:19;12.37;;;9.77;;
20065;SDS011;10193;48.884;9.182;2023-01-24T02:29:46;10.60;;;9.33;;
20065;SDS011;10193;48.884;9.182;2023-01-24T02:32:13;13.87;;;10.03;;
20065;SDS011;10193;48.884;9.182;2023-01-24T02:34:42;12.07;;;9.90;;
20065;SDS011;10193;48.884;9.182;2023-01-24T02:37:10;10.63;;;9.53;;
20065;SDS011;10193;48.884;9.182;2023-01-24T02:39:40;11.10;;;9.43;;
20065;SDS011;10193;48.884;9.182;2023-01-24T02:42:13;10.50;;;9.10;;
20065;SDS011;10193;48.884;9.182;2023-01-24T02:44:48;10.80;;;9.53;;
20065;SDS011;10193;48.884;9.182;2023-01-24T02:47:18;10.80;;;9.63;;
20065;SDS011;10193;48.884;9.182;2023-01-24T02:49:45;12.10;;;9.90;;
20065;SDS011;10193;48.884;9.182;2023-01-24T02:52:11;10.87;;;9.70;;
20065;SDS011;10193;48.884;9.182;2023-01-24T02:54:56;10.80;;;9.33;;
20065;SDS011;10193;48.884;9.182;2023-01-24T02:57:23;10.70;;;9.60;;
20065;SDS011;10193;48.884;9.182;2023-01-24T03:00:09;10.10;;;8.87;;
20065;SDS011;10193;48.884;9.182;2023-01-24T03:02:37;10.37;;;9.27;;
20065;SDS011;10193;48.884;9.182;2023-01-24T03:05:04;10.30;;;8.97;;
20065;SDS011;10193;48.884;9.182;2023-01-24T03:07:31;10.37;;;9.27;;
20065;SDS011;10193;48.884;9.182;2023-01-24T03:10:07;10.30;;;8.90;;
20065;SDS011;10193;48.884;9.182;2023-01-24T03:12:34;9.83;;;8.27;;
20065;SDS011;10193;48.884;9.182;2023-01-24T03:15:19;11.10;;;9.23;;
20065;SDS011;10193;48.884;9.182;2023-01-24T03:18:04;10.17;;;8.80;;
20065;SDS011;10193;48.884;9.182;2023-01-24T03:20:48;9.93;;;8.90;;
20065;SDS011;10193;48.884;9.182;2023-01-24T03:23:32;9.77;;;8.77;;
20065;SDS011;10193;48.884;9.182;2023-01-24T03:26:17;10.73;;;9.17;;
20065;SDS011;10193;48.884;9.182;2023-01-24T03:29:01;10.67;;;9.53;;
20065;SDS011;10193;48.884;9.182;2023-01-24T03:31:46;10.27;;;9.07;;
20065;SDS011;10193;48.884;9.182;2023-01-24T03:34:31;9.87;;;8.63;;
20065;SDS011;10193;48.884;9.182;2023-01-24T03:36:58;9.77;;;8.77;;
20065;SDS011;10193;48.884;9.182;2023-01-24T03:39:25;10.93;;;9.63;;
20065;SDS011;10193;48.884;9.182;2023-01-24T03:42:09;12.40;;;10.20;;
20065;SDS011;10193;48.884;9.182;2023-01-24T03:44:35;10.77;;;9.47;;
20065;SDS011;10193;48.884;9.182;2023-01-24T03:47:04;11.90;;;10.03;;
20065;SDS011;10193;48.884;9.182;2023-01-24T03:49:31;11.30;;;10.13;;
20065;SDS011;10193;48.884;9.182;2023-01-24T03:52:15;11.77;;;10.00;;
20065;SDS011;10193;48.884;9.182;2023-01-24T03:54:52;10.20;;;9.10;;
20065;SDS011;10193;48.884;9.182;2023-01-24T03:57:19;10.87;;;9.73;;
20065;SDS011;10193;48.884;9.182;2023-01-24T03:59:45;11.30;;;9.87;;
20065;SDS011;10193;48.884;9.182;2023-01-24T04:02:13;12.17;;;9.70;;
20065;SDS011;10193;48.884;9.182;2023-01-24T04:04:40;12.67;;;10.80;;
20065;SDS011;10193;48.884;9.182;2023-01-24T04:07:24;11.07;;;9.80;;
20065;SDS011;10193;48.884;9.182;2023-01-24T04:09:51;12.23;;;9.93;;
20065;SDS011;10193;48.884;9.182;2023-01-24T04:12:18;11.93;;;10.20;;
20065;SDS011;10193;48.884;9.182;2023-01-24T04:14:45;11.30;;;9.77;;
20065;SDS011;10193;48.884;9.182;2023-01-24T04:17:11;11.33;;;9.93;;
20065;SDS011;10193;48.884;9.182;2023-01-24T04:19:40;10.30;;;9.03;;
20065;SDS011;10193;48.884;9.182;2023-01-24T04:22:06;10.93;;;9.77;;
20065;SDS011;10193;48.884;9.182;2023-01-24T04:24:33;12.03;;;10.73;;
20065;SDS011;10193;48.884;9.182;2023-01-24T04:26:59;11.47;;;10.27;;
20065;SDS011;10193;48.884;9.182;2023-01-24T04:29:26;12.53;;;10.53;;
20065;SDS011;10193;48.884;9.182;2023-01-24T04:31:53;12.67;;;10.13;;
20065;SDS011;10193;48.884;9.182;2023-01-24T04:34:21;12.40;;;10.57;;
20065;SDS011;10193;48.884;9.182;2023-01-24T04:36:47;12.30;;;10.80;;
20065;SDS011;10193;48.884;9.182;2023-01-24T04:39:14;12.00;;;10.67;;
20065;SDS011;10193;48.884;9.182;2023-01-24T04:41:41;12.63;;;10.50;;
20065;SDS011;10193;48.884;9.182;2023-01-24T04:44:07;13.63;;;11.53;;
20065;SDS011;10193;48.884;9.182;2023-01-24T04:46:34;11.97;;;10.60;;
20065;SDS011;10193;48.884;9.182;2023-01-24T04:49:01;13.03;;;11.20;;
20065;SDS011;10193;48.884;9.182;2023-01-24T04:51:29;12.10;;;10.60;;
20065;SDS011;10193;48.884;9.182;2023-01-24T04:53:55;13.17;;;10.90;;
20065;SDS011;10193;48.884;9.182;2023-01-24T04:56:22;11.03;;;9.37;;
20065;SDS011;10193;48.884;9.182;2023-01-24T04:58:49;11.60;;;9.97;;
20065;SDS011;10193;48.884;9.182;2023-01-24T05:01:15;12.30;;;10.17;;
20065;SDS011;10193;48.884;9.182;2023-01-24T05:03:42;12.37;;;10.57;;
20065;SDS011;10193;48.884;9.182;2023-01-24T05:06:08;12.47;;;10.40;;
20065;SDS011;10193;48.884;9.182;2023-01-24T05:08:36;11.70;;;10.23;;
20065;SDS011;10193;48.884;9.182;2023-01-24T05:11:03;12.23;;;10.43;;
20065;SDS011;10193;48.884;9.182;2023-01-24T05:13:30;12.03;;;10.10;;
20065;SDS011;10193;48.884;9.182;2023-01-24T05:15:57;12.20;;;10.53;;
20065;SDS011;10193;48.884;9.182;2023-01-24T05:18:24;12.57;;;10.77;;
20065;SDS011;10193;48.884;9.182;2023-01-24T05:20:50;12.20;;;10.47;;
20065;SDS011;10193;48.884;9.182;2023-01-24T05:23:17;13.00;;;11.13;;
20065;SDS011;10193;48.884;9.182;2023-01-24T05:25:45;12.80;;;11.03;;
20065;SDS011;10193;48.884;9.182;2023-01-24T05:28:11;13.03;;;10.97;;
20065;SDS011;10193;48.884;9.182;2023-01-24T05:30:38;13.23;;;10.87;;
20065;SDS011;10193;48.884;9.182;2023-01-24T05:33:05;13.53;;;10.90;;
20065;SDS011;10193;48.884;9.182;2023-01-24T05:35:31;13.27;;;10.77;;
20065;SDS011;10193;48.884;9.182;2023-01-24T05:37:58;11.50;;;10.00;;
20065;SDS011;10193;48.884;9.182;2023-01-24T05:40:26;12.70;;;10.50;;
20065;SDS011;10193;48.884;9.182;2023-01-24T05:42:53;13.53;;;10.73;;
20065;SDS011;10193;48.884;9.182;2023-01-24T05:45:20;13.13;;;10.50;;
20065;SDS011;10193;48.884;9.182;2023-01-24T05:47:47;12.27;;;10.60;;
20065;SDS011;10193;48.884;9.182;2023-01-24T05:50:13;12.87;;;10.90;;
20065;SDS011;10193;48.884;9.182;2023-01-24T05:52:40;11.90;;;10.47;;
20065;SDS011;10193;48.884;9.182;2023-01-24T05:55:07;11.83;;;10.03;;
20065;SDS011;10193;48.884;9.182;2023-01-24T05:57:34;12.30;;;10.10;;
20065;SDS011;10193;48.884;9.182;2023-01-24T06:00:04;13.20;;;10.63;;
20065;SDS011;10193;48.884;9.182;2023-01-24T06:02:31;12.53;;;10.60;;
20065;SDS011;10193;48.884;9.182;2023-01-24T06:04:58;12.97;;;10.60;;
20065;SDS011;10193;48.884;9.182;2023-01-24T06:07:24;12.13;;;10.17;;
20065;SDS011;10193;48.884;9.182;2023-01-24T06:09:51;13.47;;;11.13;;
20065;SDS011;10193;48.884;9.182;2023-01-24T06:12:18;12.33;;;10.50;;
20065;SDS011;10193;48.884;9.182;2023-01-24T06:14:44;13.07;;;10.67;;
20065;SDS011;10193;48.884;9.182;2023-01-24T06:17:12;12.53;;;10.50;;
20065;SDS011;10193;48.884;9.182;2023-01-24T06:19:39;13.13;;;10.50;;
20065;SDS011;10193;48.884;9.182;2023-01-24T06:22:09;12.20;;;10.17;;
20065;SDS011;10193;48.884;9.182;2023-01-24T06:24:46;11.80;;;10.30;;
20065;SDS011;10193;48.884;9.182;2023-01-24T06:27:13;11.70;;;10.33;;
20065;SDS011;10193;48.884;9.182;2023-01-24T06:29:40;14.30;;;11.50;;
20065;SDS011;10193;48.884;9.182;2023-01-24T06:32:11;12.30;;;11.00;;
20065;SDS011;10193;48.884;9.182;2023-01-24T06:35:00;11.13;;;9.50;;
20065;SDS011;10193;48.884;9.182;2023-01-24T06:37:36;13.67;;;10.70;;
20065;SDS011;10193;48.884;9.182;2023-01-24T06:40:10;13.13;;;10.73;;
20065;SDS011;10193;48.884;9.182;2023-01-24T06:42:39;14.53;;;10.60;;
20065;SDS011;10193;48.884;9.182;2023-01-24T06:45:07;12.43;;;10.57;;
20065;SDS011;10193;48.884;9.182;2023-01-24T06:47:36;13.40;;;11.17;;
20065;SDS011;10193;48.884;9.182;2023-01-24T06:50:03;14.53;;;11.30;;
20065;SDS011;10193;48.884;9.182;2023-01-24T06:52:31;12.77;;;10.43;;
20065;SDS011;10193;48.884;9.182;2023-01-24T06:54:57;13.50;;;10.83;;
20065;SDS011;10193;48.884;9.182;2023-01-24T06:57:24;14.40;;;11.37;;
20065;SDS011;10193;48.884;9.182;2023-01-24T06:59:51;12.97;;;10.30;;
20065;SDS011;10193;48.884;9.182;2023-01-24T07:02:17;13.23;;;11.50;;
20065;SDS011;10193;48.884;9.182;2023-01-24T07:04:45;13.20;;;10.57;;
20065;SDS011;10193;48.884;9.182;2023-01-24T07:07:12;14.40;;;11.50;;
20065;SDS011;10193;48.884;9.182;2023-01-24T07:09:39;13.60;;;11.53;;
20065;SDS011;10193;48.884;9.182;2023-01-24T07:12:05;13.40;;;11.13;;
20065;SDS011;10193;48.884;9.182;2023-01-24T07:14:32;13.83;;;11.10;;
20065;SDS011;10193;48.884;9.182;2023-01-24T07:16:59;12.90;;;11.20;;
20065;SDS011;10193;48.884;9.182;2023-01-24T07:19:26;14.60;;;11.63;;
20065;SDS011;10193;48.884;9.182;2023-01-24T07:21:55;12.87;;;11.03;;
20065;SDS011;10193;48.884;9.182;2023-01-24T07:24:23;13.53;;;10.93;;
20065;SDS011;10193;48.884;9.182;2023-01-24T07:26:52;13.80;;;11.40;;
20065;SDS011;10193;48.884;9.182;2023-01-24T07:29:19;14.33;;;11.77;;
20065;SDS011;10193;48.884;9.182;2023-01-24T07:31:47;14.40;;;11.40;;
20065;SDS011;10193;48.884;9.182;2023-01-24T07:34:14;13.20;;;11.07;;
20065;SDS011;10193;48.884;9.182;2023-01-24T07:36:41;13.67;;;10.83;;
20065;SDS011;10193;48.884;9.182;2023-01-24T07:39:09;12.43;;;10.60;;
20065;SDS011;10193;48.884;9.182;2023-01-24T07:41:36;15.07;;;11.80;;
20065;SDS011;10193;48.884;9.182;2023-01-24T07:44:04;14.37;;;11.33;;
20065;SDS011;10193;48.884;9.182;2023-01-24T07:46:31;13.93;;;10.90;;
20065;SDS011;10193;48.884;9.182;2023-01-24T07:48:57;13.37;;;10.83;;
20065;SDS011;10193;48.884;9.182;2023-01-24T07:51:24;14.70;;;11.37;;
20065;SDS011;10193;48.884;9.182;2023-01-24T07:53:51;14.23;;;11.20;;
20065;SDS011;10193;48.884;9.182;2023-01-24T07:56:19;14.70;;;11.40;;
20065;SDS011;10193;48.884;9.182;2023-01-24T07:58:46;13.23;;;10.63;;
20065;SDS011;10193;48.884;9.182;2023-01-24T08:01:15;13.60;;;11.03;;
20065;SDS011;10193;48.884;9.182;2023-01-24T08:03:42;13.53;;;10.50;;
20065;SDS011;10193;48.884;9.182;2023-01-24T08:06:09;13.80;;;10.97;;
20065;SDS011;10193;48.884;9.182;2023-01-24T08:08:35;13.87;;;11.20;;
20065;SDS011;10193;48.884;9.182;2023-01-24T08:11:02;13.70;;;11.20;;
20065;SDS011;10193;48.884;9.182;2023-01-24T08:13:30;11.87;;;9.53;;
20065;SDS011;10193;48.884;9.182;2023-01-24T08:15:58;12.70;;;10.60;;
20065;SDS011;10193;48.884;9.182;2023-01-24T08:18:25;12.57;;;10.17;;
20065;SDS011;10193;48.884;9.182;2023-01-24T08:20:53;11.80;;;10.27;;
20065;SDS011;10193;48.884;9.182;2023-01-24T08:23:20;13.13;;;10.50;;
20065;SDS011;10193;48.884;9.182;2023-01-24T08:25:47;12.70;;;10.23;;
20065;SDS011;10193;48.884;9.182;2023-01-24T08:28:13;11.67;;;10.10;;
20065;SDS011;10193;48.884;9.182;2023-01-24T08:30:41;12.37;;;10.13;;
20065;SDS011;10193;48.884;9.182;2023-01-24T08:33:08;12.73;;;10.63;;
20065;SDS011;10193;48.884;9.182;2023-01-24T08:35:35;12.40;;;10.27;;
20065;SDS011;10193;48.884;9.182;2023-01-24T08:38:03;13.03;;;10.37;;
20065;SDS011;10193;48.884;9.182;2023-01-24T08:40:30;11.97;;;10.33;;
20065;SDS011;10193;48.884;9.182;2023-01-24T08:42:58;12.77;;;10.87;;
20065;SDS011;10193;48.884;9.182;2023-01-24T08:45:26;12.80;;;10.00;;
20065;SDS011;10193;48.884;9.182;2023-01-24T08:47:54;11.50;;;9.20;;
20065;SDS011;10193;48.884;9.182;2023-01-24T08:50:20;12.30;;;9.90;;
20065;SDS011;10193;48.884;9.182;2023-01-24T08:52:47;12.97;;;9.97;;
20065;SDS011;10193;48.884;9.182;2023-01-24T08:55:15;11.30;;;9.47;;
20065;SDS011;10193;48.884;9.182;2023-01-24T08:57:41;11.97;;;9.87;;
20065;SDS011;10193;48.884;9.182;2023-01-24T09:00:08;11.23;;;9.50;;
20065;SDS011;10193;48.884;9.182;2023-01-24T09:02:36;12.03;;;9.97;;
20065;SDS011;10193;48.884;9.182;2023-01-24T09:05:05;12.50;;;9.50;;
20065;SDS011;10193;48.884;9.182;2023-01-24T09:07:33;10.70;;;9.57;;
20065;SDS011;10193;48.884;9.182;2023-01-24T09:10:01;11.10;;;9.40;;
20065;SDS011;10193;48.884;9.182;2023-01-24T09:12:30;10.37;;;9.27;;
20065;SDS011;10193;48.884;9.182;2023-01-24T09:14:57;12.00;;;9.20;;
20065;SDS011;10193;48.884;9.182;2023-01-24T09:17:24;9.63;;;8.63;;
20065;SDS011;10193;48.884;9.182;2023-01-24T09:19:51;10.83;;;9.13;;
20065;SDS011;10193;48.884;9.182;2023-01-24T09:22:19;10.13;;;8.83;;
20065;SDS011;10193;48.884;9.182;2023-01-24T09:24:45;10.43;;;9.07;;
20065;SDS011;10193;48.884;9.182;2023-01-24T09:27:12;10.77;;;9.03;;
20065;SDS011;10193;48.884;9.182;2023-01-24T09:29:39;9.73;;;8.10;;
20065;SDS011;10193;48.884;9.182;2023-01-24T09:32:05;9.27;;;8.37;;
20065;SDS011;10193;48.884;9.182;2023-01-24T09:34:32;9.97;;;8.20;;
20065;SDS011;10193;48.884;9.182;2023-01-24T09:36:59;9.93;;;8.17;;
20065;SDS011;10193;48.884;9.182;2023-01-24T09:39:27;9.43;;;8.33;;
20065;SDS011;10193;48.884;9.182;2023-01-24T09:41:57;9.73;;;8.00;;
20065;SDS011;10193;48.884;9.182;2023-01-24T09:44:28;10.07;;;8.23;;
20065;SDS011;10193;48.884;9.182;2023-01-24T09:47:06;9.73;;;8.20;;
20065;SDS011;10193;48.884;9.182;2023-01-24T09:49:42;9.43;;;7.83;;
20065;SDS011;10193;48.884;9.182;2023-01-24T09:52:15;9.13;;;8.23;;
20065;SDS011;10193;48.884;9.182;2023-01-24T09:54:51;8.33;;;7.27;;
20065;SDS011;10193;48.884;9.182;2023-01-24T09:57:24;8.60;;;7.70;;
20065;SDS011;10193;48.884;9.182;2023-01-24T09:59:55;8.88;;;7.97;;
20065;SDS011;10193;48.884;9.182;2023-01-24T10:02:24;9.60;;;7.27;;
20065;SDS011;10193;48.884;9.182;2023-01-24T10:04:53;8.47;;;7.57;;
20065;SDS011;10193;48.884;9.182;2023-01-24T10:07:37;8.00;;;7.20;;
20065;SDS011;10193;48.884;9.182;2023-01-24T10:10:25;8.25;;;7.45;;
20065;SDS011;10193;48.884;9.182;2023-01-24T10:13:08;8.83;;;7.70;;
20065;SDS011;10193;48.884;9.182;2023-01-24T10:16:02;8.05;;;7.25;;
20065;SDS011;10193;48.884;9.182;2023-01-24T10:18:40;8.97;;;7.70;;
20065;SDS011;10193;48.884;9.182;2023-01-24T10:21:30;8.37;;;7.50;;
20065;SDS011;10193;48.884;9.182;2023-01-24T10:24:11;8.43;;;7.20;;
20065;SDS011;10193;48.884;9.182;2023-01-24T10:26:44;8.80;;;7.70;;
20065;SDS011;10193;48.884;9.182;2023-01-24T10:29:14;9.02;;;7.32;;
20065;SDS011;10193;48.884;9.182;2023-01-24T10:31:45;8.50;;;7.60;;
20065;SDS011;10193;48.884;9.182;2023-01-24T10:34:23;8.43;;;7.18;;
20065;SDS011;10193;48.884;9.182;2023-01-24T10:36:55;8.35;;;7.15;;
20065;SDS011;10193;48.884;9.182;2023-01-24T10:39:25;8.83;;;7.50;;
20065;SDS011;10193;48.884;9.182;2023-01-24T10:41:53;12.25;;;8.10;;
20065;SDS011;10193;48.884;9.182;2023-01-24T10:44:23;8.57;;;7.32;;
20065;SDS011;10193;48.884;9.182;2023-01-24T10:46:57;9.25;;;7.53;;
20065;SDS011;10193;48.884;9.182;2023-01-24T10:49:47;8.70;;;7.32;;
20065;SDS011;10193;48.884;9.182;2023-01-24T10:52:20;11.53;;;7.83;;
20065;SDS011;10193;48.884;9.182;2023-01-24T10:54:48;10.47;;;7.50;;
20065;SDS011;10193;48.884;9.182;2023-01-24T10:57:23;8.73;;;7.57;;
20065;SDS011;10193;48.884;9.182;2023-01-24T11:00:04;7.97;;;7.17;;
20065;SDS011;10193;48.884;9.182;2023-01-24T11:02:43;9.85;;;7.78;;
20065;SDS011;10193;48.884;9.182;2023-01-24T11:05:13;8.67;;;7.23;;
20065;SDS011;10193;48.884;9.182;2023-01-24T11:07:44;8.15;;;7.30;;
20065;SDS011;10193;48.884;9.182;2023-01-24T11:10:17;8.63;;;7.65;;
20065;SDS011;10193;48.884;9.182;2023-01-24T11:12:51;8.20;;;6.93;;
20065;SDS011;10193;48.884;9.182;2023-01-24T11:15:20;8.27;;;6.97;;
20065;SDS011;10193;48.884;9.182;2023-01-24T11:17:52;8.37;;;7.47;;
20065;SDS011;10193;48.884;9.182;2023-01-24T11:20:24;7.50;;;6.77;;
20065;SDS011;10193;48.884;9.182;2023-01-24T11:23:00;8.13;;;6.93;;
20065;SDS011;10193;48.884;9.182;2023-01-24T11:25:29;9.27;;;7.43;;
20065;SDS011;10193;48.884;9.182;2023-01-24T11:27:57;7.37;;;6.63;;
20065;SDS011;10193;48.884;9.182;2023-01-24T11:30:25;8.77;;;6.90;;
20065;SDS011;10193;48.884;9.182;2023-01-24T11:32:58;8.07;;;6.90;;
20065;SDS011;10193;48.884;9.182;2023-01-24T11:35:34;7.90;;;7.10;;
20065;SDS011;10193;48.884;9.182;2023-01-24T11:38:21;7.73;;;6.93;;
20065;SDS011;10193;48.884;9.182;2023-01-24T11:41:05;7.80;;;6.70;;
20065;SDS011;10193;48.884;9.182;2023-01-24T11:43:47;7.72;;;6.88;;
20065;SDS011;10193;48.884;9.182;2023-01-24T11:46:28;7.77;;;6.60;;
20065;SDS011;10193;48.884;9.182;2023-01-24T11:49:07;7.60;;;6.30;;
20065;SDS011;10193;48.884;9.182;2023-01-24T11:51:49;7.10;;;6.27;;
20065;SDS011;10193;48.884;9.182;2023-01-24T11:54:30;7.10;;;5.97;;
20065;SDS011;10193;48.884;9.182;2023-01-24T11:57:05;8.13;;;7.33;;
20065;SDS011;10193;48.884;9.182;2023-01-24T11:59:49;6.90;;;6.20;;
20065;SDS011;10193;48.884;9.182;2023-01-24T12:05:31;7.25;;;6.25;;
20065;SDS011;10193;48.884;9.182;2023-01-24T12:08:10;6.85;;;6.15;;
20065;SDS011;10193;48.884;9.182;2023-01-24T12:10:49;8.70;;;6.70;;
20065;SDS011;10193;48.884;9.182;2023-01-24T12:13:27;7.00;;;6.25;;
20065;SDS011;10193;48.884;9.182;2023-01-24T12:16:07;6.37;;;5.77;;
20065;SDS011;10193;48.884;9.182;2023-01-24T12:18:46;6.37;;;5.73;;
20065;SDS011;10193;48.884;9.182;2023-01-24T12:21:27;6.97;;;6.18;;
20065;SDS011;10193;48.884;9.182;2023-01-24T12:23:55;7.68;;;6.20;;
20065;SDS011;10193;48.884;9.182;2023-01-24T12:26:27;7.53;;;6.57;;
20065;SDS011;10193;48.884;9.182;2023-01-24T12:29:00;7.15;;;6.05;;
20065;SDS011;10193;48.884;9.182;2023-01-24T12:31:35;7.33;;;6.37;;
20065;SDS011;10193;48.884;9.182;2023-01-24T12:34:09;7.90;;;6.47;;
20065;SDS011;10193;48.884;9.182;2023-01-24T12:36:49;6.90;;;6.15;;
20065;SDS011;10193;48.884;9.182;2023-01-24T12:39:21;7.40;;;6.07;;
20065;SDS011;10193;48.884;9.182;2023-01-24T12:41:55;6.33;;;5.73;;
20065;SDS011;10193;48.884;9.182;2023-01-24T12:44:28;6.73;;;5.97;;
20065;SDS011;10193;48.884;9.182;2023-01-24T12:47:02;7.13;;;5.90;;
20065;SDS011;10193;48.884;9.182;2023-01-24T12:49:45;6.72;;;6.03;;
20065;SDS011;10193;48.884;9.182;2023-01-24T12:52:18;6.45;;;5.80;;
20065;SDS011;10193;48.884;9.182;2023-01-24T12:54:50;6.50;;;5.70;;
20065;SDS011;10193;48.884;9.182;2023-01-24T12:57:22;7.53;;;5.85;;
20065;SDS011;10193;48.884;9.182;2023-01-24T12:59:52;6.40;;;5.77;;
20065;SDS011;10193;48.884;9.182;2023-01-24T13:02:24;7.70;;;6.13;;
20065;SDS011;10193;48.884;9.182;2023-01-24T13:05:17;7.60;;;6.50;;
20065;SDS011;10193;48.884;9.182;2023-01-24T13:07:55;6.40;;;5.70;;
20065;SDS011;10193;48.884;9.182;2023-01-24T13:10:37;6.77;;;5.67;;
20065;SDS011;10193;48.884;9.182;2023-01-24T13:13:17;6.10;;;5.50;;
20065;SDS011;10193;48.884;9.182;2023-01-24T13:15:52;6.47;;;5.67;;
20065;SDS011;10193;48.884;9.182;2023-01-24T13:18:45;8.87;;;6.37;;
20065;SDS011;10193;48.884;9.182;2023-01-24T13:21:24;6.55;;;5.88;;
20065;SDS011;10193;48.884;9.182;2023-01-24T13:24:03;7.30;;;6.00;;
20065;SDS011;10193;48.884;9.182;2023-01-24T13:27:07;7.35;;;6.60;;
20065;SDS011;10193;48.884;9.182;2023-01-24T13:30:05;7.57;;;5.83;;
20065;SDS011;10193;48.884;9.182;2023-01-24T13:32:47;7.90;;;6.50;;
20065;SDS011;10193;48.884;9.182;2023-01-24T13:35:18;7.90;;;7.10;;
20065;SDS011;10193;48.884;9.182;2023-01-24T13:37:50;7.97;;;6.77;;
20065;SDS011;10193;48.884;9.182;2023-01-24T13:40:20;7.77;;;6.90;;
20065;SDS011;10193;48.884;9.182;2023-01-24T13:42:51;7.37;;;6.50;;
20065;SDS011;10193;48.884;9.182;2023-01-24T13:54:00;6.57;;;5.97;;
20065;SDS011;10193;48.884;9.182;2023-01-24T13:56:27;7.57;;;6.57;;
20065;SDS011;10193;48.884;9.182;2023-01-24T13:58:55;6.90;;;6.20;;
20065;SDS011;10193;48.884;9.182;2023-01-24T14:01:24;7.10;;;6.40;;
20065;SDS011;10193;48.884;9.182;2023-01-24T14:03:53;7.60;;;6.83;;
20065;SDS011;10193;48.884;9.182;2023-01-24T14:06:21;7.30;;;6.50;;
20065;SDS011;10193;48.884;9.182;2023-01-24T14:09:04;7.53;;;6.73;;
20065;SDS011;10193;48.884;9.182;2023-01-24T14:11:40;8.70;;;7.00;;
20065;SDS011;10193;48.884;9.182;2023-01-24T14:17:46;7.63;;;6.43;;
20065;SDS011;10193;48.884;9.182;2023-01-24T14:23:03;7.60;;;6.90;;
20065;SDS011;10193;48.884;9.182;2023-01-24T14:25:41;9.00;;;7.30;;
20065;SDS011;10193;48.884;9.182;2023-01-24T14:28:16;8.07;;;7.10;;
20065;SDS011;10193;48.884;9.182;2023-01-24T14:30:58;9.37;;;6.90;;
20065;SDS011;10193;48.884;9.182;2023-01-24T14:33:37;8.97;;;7.13;;
20065;SDS011;10193;48.884;9.182;2023-01-24T14:36:15;10.10;;;7.50;;
20065;SDS011;10193;48.884;9.182;2023-01-24T14:38:48;7.80;;;7.00;;
20065;SDS011;10193;48.884;9.182;2023-01-24T14:41:40;7.90;;;7.10;;
20065;SDS011;10193;48.884;9.182;2023-01-24T14:44:15;9.50;;;7.83;;
20065;SDS011;10193;48.884;9.182;2023-01-24T14:46:50;10.20;;;7.73;;
20065;SDS011;10193;48.884;9.182;2023-01-24T14:49:23;10.17;;;7.90;;
20065;SDS011;10193;48.884;9.182;2023-01-24T14:51:52;9.33;;;8.33;;
20065;SDS011;10193;48.884;9.182;2023-01-24T14:54:19;9.13;;;8.10;;
20065;SDS011;10193;48.884;9.182;2023-01-24T14:56:49;8.60;;;7.70;;
20065;SDS011;10193;48.884;9.182;2023-01-24T14:59:16;10.03;;;8.23;;
20065;SDS011;10193;48.884;9.182;2023-01-24T15:01:44;9.17;;;8.17;;
20065;SDS011;10193;48.884;9.182;2023-01-24T15:04:25;9.77;;;8.10;;
20065;SDS011;10193;48.884;9.182;2023-01-24T15:07:02;9.57;;;8.00;;
20065;SDS011;10193;48.884;9.182;2023-01-24T15:09:35;8.53;;;7.63;;
20065;SDS011;10193;48.884;9.182;2023-01-24T15:12:14;8.10;;;7.27;;
20065;SDS011;10193;48.884;9.182;2023-01-24T15:14:50;7.93;;;7.13;;
20065;SDS011;10193;48.884;9.182;2023-01-24T15:17:20;10.27;;;7.97;;